sensor_id;sensor_type;location;lat;lon;timestamp;P1;durP1;ratioP1;P2;durP2;ratioP2
68800;SDS011;55784;50.734;7.086;2022-08-21T00:00:50;9.80;;;3.83;;
68800;SDS011;55784;50.734;7.086;2022-08-21T00:03:16;15.05;;;4.07;;
68800;SDS011;55784;50.734;7.086;2022-08-21T00:05:43;9.43;;;4.13;;
68800;SDS011;55784;50.734;7.086;2022-08-21T00:08:10;12.07;;;4.10;;
68800;SDS011;55784;50.734;7.086;2022-08-21T00:10:36;8.47;;;4.17;;
68800;SDS011;55784;50.734;7.086;2022-08-21T00:13:03;10.02;;;3.95;;
68800;SDS011;55784;50.734;7.086;2022-08-21T00:15:30;10.55;;;4.00;;
68800;SDS011;55784;50.734;7.086;2022-08-21T00:17:56;10.55;;;4.00;;
68800;SDS011;55784;50.734;7.086;2022-08-21T00:20:22;11.07;;;4.20;;
68800;SDS011;55784;50.734;7.086;2022-08-21T00:22:49;8.60;;;4.05;;
68800;SDS011;55784;50.734;7.086;2022-08-21T00:25:15;10.80;;;4.40;;
68800;SDS011;55784;50.734;7.086;2022-08-21T00:27:42;11.77;;;4.20;;
68800;SDS011;55784;50.734;7.086;2022-08-21T00:30:08;11.27;;;4.43;;
68800;SDS011;55784;50.734;7.086;2022-08-21T00:32:37;10.75;;;3.78;;
68800;SDS011;55784;50.734;7.086;2022-08-21T00:35:04;9.75;;;4.00;;
68800;SDS011;55784;50.734;7.086;2022-08-21T00:37:32;10.70;;;3.95;;
68800;SDS011;55784;50.734;7.086;2022-08-21T00:39:58;8.70;;;4.07;;
68800;SDS011;55784;50.734;7.086;2022-08-21T00:42:23;9.93;;;4.00;;
68800;SDS011;55784;50.734;7.086;2022-08-21T00:44:49;9.17;;;3.90;;
68800;SDS011;55784;50.734;7.086;2022-08-21T00:47:15;10.80;;;4.13;;
68800;SDS011;55784;50.734;7.086;2022-08-21T00:49:42;10.00;;;4.28;;
68800;SDS011;55784;50.734;7.086;2022-08-21T00:52:09;12.03;;;4.23;;
68800;SDS011;55784;50.734;7.086;2022-08-21T00:54:38;10.05;;;3.80;;
68800;SDS011;55784;50.734;7.086;2022-08-21T00:57:07;9.82;;;3.97;;
68800;SDS011;55784;50.734;7.086;2022-08-21T00:59:37;9.10;;;3.97;;
68800;SDS011;55784;50.734;7.086;2022-08-21T01:02:05;10.65;;;4.15;;
68800;SDS011;55784;50.734;7.086;2022-08-21T01:04:32;10.97;;;3.80;;
68800;SDS011;55784;50.734;7.086;2022-08-21T01:06:57;10.63;;;4.00;;
68800;SDS011;55784;50.734;7.086;2022-08-21T01:09:23;9.40;;;4.20;;
68800;SDS011;55784;50.734;7.086;2022-08-21T01:11:48;10.47;;;4.03;;
68800;SDS011;55784;50.734;7.086;2022-08-21T01:14:14;9.13;;;4.13;;
68800;SDS011;55784;50.734;7.086;2022-08-21T01:16:40;11.50;;;4.10;;
68800;SDS011;55784;50.734;7.086;2022-08-21T01:19:09;8.68;;;4.00;;
68800;SDS011;55784;50.734;7.086;2022-08-21T01:21:36;9.63;;;4.15;;
68800;SDS011;55784;50.734;7.086;2022-08-21T01:24:01;9.90;;;4.03;;
68800;SDS011;55784;50.734;7.086;2022-08-21T01:26:28;9.33;;;4.20;;
68800;SDS011;55784;50.734;7.086;2022-08-21T01:31:28;7.68;;;3.95;;
68800;SDS011;55784;50.734;7.086;2022-08-21T01:33:56;11.43;;;4.40;;
68800;SDS011;55784;50.734;7.086;2022-08-21T01:36:22;9.20;;;4.27;;
68800;SDS011;55784;50.734;7.086;2022-08-21T01:38:48;9.38;;;3.92;;
68800;SDS011;55784;50.734;7.086;2022-08-21T01:41:14;8.23;;;4.03;;
68800;SDS011;55784;50.734;7.086;2022-08-21T01:43:40;8.45;;;3.90;;
68800;SDS011;55784;50.734;7.086;2022-08-21T01:46:07;10.05;;;4.22;;
68800;SDS011;55784;50.734;7.086;2022-08-21T01:48:32;8.90;;;4.03;;
68800;SDS011;55784;50.734;7.086;2022-08-21T01:50:58;8.55;;;4.00;;
68800;SDS011;55784;50.734;7.086;2022-08-21T01:53:23;10.23;;;4.17;;
68800;SDS011;55784;50.734;7.086;2022-08-21T01:55:49;9.57;;;4.30;;
68800;SDS011;55784;50.734;7.086;2022-08-21T01:58:14;11.43;;;4.40;;
68800;SDS011;55784;50.734;7.086;2022-08-21T02:00:39;8.68;;;4.10;;
68800;SDS011;55784;50.734;7.086;2022-08-21T02:03:05;9.23;;;4.37;;
68800;SDS011;55784;50.734;7.086;2022-08-21T02:05:30;9.10;;;4.30;;
68800;SDS011;55784;50.734;7.086;2022-08-21T02:07:56;10.27;;;4.50;;
68800;SDS011;55784;50.734;7.086;2022-08-21T02:10:23;10.05;;;4.00;;
68800;SDS011;55784;50.734;7.086;2022-08-21T02:12:52;9.65;;;4.10;;
68800;SDS011;55784;50.734;7.086;2022-08-21T02:15:18;9.57;;;4.20;;
68800;SDS011;55784;50.734;7.086;2022-08-21T02:17:45;12.65;;;5.47;;
68800;SDS011;55784;50.734;7.086;2022-08-21T02:20:21;9.93;;;4.32;;
68800;SDS011;55784;50.734;7.086;2022-08-21T02:22:55;10.10;;;4.40;;
68800;SDS011;55784;50.734;7.086;2022-08-21T02:25:21;12.33;;;4.80;;
68800;SDS011;55784;50.734;7.086;2022-08-21T02:27:47;10.07;;;4.68;;
68800;SDS011;55784;50.734;7.086;2022-08-21T02:30:15;11.50;;;4.70;;
68800;SDS011;55784;50.734;7.086;2022-08-21T02:32:46;10.55;;;4.75;;
68800;SDS011;55784;50.734;7.086;2022-08-21T02:35:11;10.13;;;4.22;;
68800;SDS011;55784;50.734;7.086;2022-08-21T02:37:51;10.03;;;4.23;;
68800;SDS011;55784;50.734;7.086;2022-08-21T02:40:20;8.80;;;4.30;;
68800;SDS011;55784;50.734;7.086;2022-08-21T02:42:48;12.80;;;4.70;;
68800;SDS011;55784;50.734;7.086;2022-08-21T02:45:15;9.77;;;4.20;;
68800;SDS011;55784;50.734;7.086;2022-08-21T02:50:32;11.55;;;4.18;;
68800;SDS011;55784;50.734;7.086;2022-08-21T02:52:59;9.43;;;4.10;;
68800;SDS011;55784;50.734;7.086;2022-08-21T02:55:26;11.60;;;4.53;;
68800;SDS011;55784;50.734;7.086;2022-08-21T02:57:54;9.85;;;4.40;;
68800;SDS011;55784;50.734;7.086;2022-08-21T03:00:21;12.13;;;4.70;;
68800;SDS011;55784;50.734;7.086;2022-08-21T03:02:47;10.13;;;4.60;;
68800;SDS011;55784;50.734;7.086;2022-08-21T03:05:14;10.60;;;4.50;;
68800;SDS011;55784;50.734;7.086;2022-08-21T03:07:40;10.25;;;5.03;;
68800;SDS011;55784;50.734;7.086;2022-08-21T03:10:08;11.00;;;4.80;;
68800;SDS011;55784;50.734;7.086;2022-08-21T03:12:34;9.23;;;4.90;;
68800;SDS011;55784;50.734;7.086;2022-08-21T03:15:06;10.43;;;4.70;;
68800;SDS011;55784;50.734;7.086;2022-08-21T03:17:34;8.90;;;4.40;;
68800;SDS011;55784;50.734;7.086;2022-08-21T03:19:59;12.10;;;4.60;;
68800;SDS011;55784;50.734;7.086;2022-08-21T03:22:25;10.85;;;4.47;;
68800;SDS011;55784;50.734;7.086;2022-08-21T03:24:51;8.82;;;4.50;;
68800;SDS011;55784;50.734;7.086;2022-08-21T03:27:17;11.17;;;4.73;;
68800;SDS011;55784;50.734;7.086;2022-08-21T03:29:42;10.93;;;4.23;;
68800;SDS011;55784;50.734;7.086;2022-08-21T03:32:08;11.93;;;4.50;;
68800;SDS011;55784;50.734;7.086;2022-08-21T03:34:34;9.50;;;4.60;;
68800;SDS011;55784;50.734;7.086;2022-08-21T03:37:01;9.88;;;4.68;;
68800;SDS011;55784;50.734;7.086;2022-08-21T03:39:27;11.30;;;4.60;;
68800;SDS011;55784;50.734;7.086;2022-08-21T03:41:52;11.50;;;4.53;;
68800;SDS011;55784;50.734;7.086;2022-08-21T03:44:19;9.68;;;4.55;;
68800;SDS011;55784;50.734;7.086;2022-08-21T03:46:44;13.80;;;4.77;;
68800;SDS011;55784;50.734;7.086;2022-08-21T03:49:10;11.60;;;4.90;;
68800;SDS011;55784;50.734;7.086;2022-08-21T03:51:35;11.57;;;4.93;;
68800;SDS011;55784;50.734;7.086;2022-08-21T03:54:00;12.30;;;4.90;;
68800;SDS011;55784;50.734;7.086;2022-08-21T03:56:26;11.90;;;4.77;;
68800;SDS011;55784;50.734;7.086;2022-08-21T03:58:51;12.83;;;4.73;;
68800;SDS011;55784;50.734;7.086;2022-08-21T04:01:17;10.73;;;4.60;;
68800;SDS011;55784;50.734;7.086;2022-08-21T04:03:42;11.53;;;5.10;;
68800;SDS011;55784;50.734;7.086;2022-08-21T04:06:07;10.85;;;4.80;;
68800;SDS011;55784;50.734;7.086;2022-08-21T04:08:33;14.20;;;5.27;;
68800;SDS011;55784;50.734;7.086;2022-08-21T04:10:58;11.43;;;5.10;;
68800;SDS011;55784;50.734;7.086;2022-08-21T04:13:24;12.70;;;5.10;;
68800;SDS011;55784;50.734;7.086;2022-08-21T04:15:53;15.77;;;5.22;;
68800;SDS011;55784;50.734;7.086;2022-08-21T04:18:19;11.30;;;5.17;;
68800;SDS011;55784;50.734;7.086;2022-08-21T04:20:45;10.27;;;5.20;;
68800;SDS011;55784;50.734;7.086;2022-08-21T04:23:12;12.27;;;5.20;;
68800;SDS011;55784;50.734;7.086;2022-08-21T04:25:38;10.63;;;5.10;;
68800;SDS011;55784;50.734;7.086;2022-08-21T04:28:03;10.43;;;5.38;;
68800;SDS011;55784;50.734;7.086;2022-08-21T04:30:29;12.33;;;5.17;;
68800;SDS011;55784;50.734;7.086;2022-08-21T04:32:55;11.93;;;5.23;;
68800;SDS011;55784;50.734;7.086;2022-08-21T04:35:22;10.25;;;5.30;;
68800;SDS011;55784;50.734;7.086;2022-08-21T04:37:49;11.18;;;5.18;;
68800;SDS011;55784;50.734;7.086;2022-08-21T04:40:15;12.20;;;5.47;;
68800;SDS011;55784;50.734;7.086;2022-08-21T04:42:47;13.40;;;5.43;;
68800;SDS011;55784;50.734;7.086;2022-08-21T04:45:27;10.40;;;4.97;;
68800;SDS011;55784;50.734;7.086;2022-08-21T04:47:55;9.32;;;4.82;;
68800;SDS011;55784;50.734;7.086;2022-08-21T04:50:24;10.52;;;5.10;;
68800;SDS011;55784;50.734;7.086;2022-08-21T04:53:08;10.80;;;5.17;;
68800;SDS011;55784;50.734;7.086;2022-08-21T04:55:36;13.70;;;4.70;;
68800;SDS011;55784;50.734;7.086;2022-08-21T04:58:02;10.40;;;4.90;;
68800;SDS011;55784;50.734;7.086;2022-08-21T05:00:30;9.65;;;4.80;;
68800;SDS011;55784;50.734;7.086;2022-08-21T05:02:55;9.57;;;4.70;;
68800;SDS011;55784;50.734;7.086;2022-08-21T05:05:23;10.85;;;4.60;;
68800;SDS011;55784;50.734;7.086;2022-08-21T05:07:49;9.87;;;4.70;;
68800;SDS011;55784;50.734;7.086;2022-08-21T05:10:15;9.32;;;4.32;;
68800;SDS011;55784;50.734;7.086;2022-08-21T05:12:41;10.63;;;4.13;;
68800;SDS011;55784;50.734;7.086;2022-08-21T05:15:08;9.00;;;4.00;;
68800;SDS011;55784;50.734;7.086;2022-08-21T05:17:34;9.00;;;4.40;;
68800;SDS011;55784;50.734;7.086;2022-08-21T05:19:59;11.97;;;4.20;;
68800;SDS011;55784;50.734;7.086;2022-08-21T05:22:24;8.80;;;4.20;;
68800;SDS011;55784;50.734;7.086;2022-08-21T05:24:50;9.13;;;4.00;;
68800;SDS011;55784;50.734;7.086;2022-08-21T05:27:17;8.75;;;4.15;;
68800;SDS011;55784;50.734;7.086;2022-08-21T05:29:42;9.00;;;4.20;;
68800;SDS011;55784;50.734;7.086;2022-08-21T05:32:11;11.10;;;4.60;;
68800;SDS011;55784;50.734;7.086;2022-08-21T05:34:37;10.63;;;4.68;;
68800;SDS011;55784;50.734;7.086;2022-08-21T05:37:03;10.17;;;4.63;;
68800;SDS011;55784;50.734;7.086;2022-08-21T05:39:29;9.90;;;4.70;;
68800;SDS011;55784;50.734;7.086;2022-08-21T05:41:55;11.35;;;4.47;;
68800;SDS011;55784;50.734;7.086;2022-08-21T05:44:20;10.33;;;4.87;;
68800;SDS011;55784;50.734;7.086;2022-08-21T05:46:46;11.50;;;5.03;;
68800;SDS011;55784;50.734;7.086;2022-08-21T05:49:11;11.77;;;5.00;;
68800;SDS011;55784;50.734;7.086;2022-08-21T05:51:36;10.82;;;4.40;;
68800;SDS011;55784;50.734;7.086;2022-08-21T05:54:04;11.97;;;4.77;;
68800;SDS011;55784;50.734;7.086;2022-08-21T05:56:29;9.50;;;4.38;;
68800;SDS011;55784;50.734;7.086;2022-08-21T05:58:55;10.77;;;4.10;;
68800;SDS011;55784;50.734;7.086;2022-08-21T06:01:20;9.70;;;3.93;;
68800;SDS011;55784;50.734;7.086;2022-08-21T06:03:45;8.83;;;4.13;;
68800;SDS011;55784;50.734;7.086;2022-08-21T06:06:11;10.52;;;4.13;;
68800;SDS011;55784;50.734;7.086;2022-08-21T06:08:36;10.97;;;4.43;;
68800;SDS011;55784;50.734;7.086;2022-08-21T06:11:02;10.57;;;4.30;;
68800;SDS011;55784;50.734;7.086;2022-08-21T06:13:28;9.18;;;4.07;;
68800;SDS011;55784;50.734;7.086;2022-08-21T06:16:10;9.43;;;4.20;;
68800;SDS011;55784;50.734;7.086;2022-08-21T06:18:38;10.82;;;4.25;;
68800;SDS011;55784;50.734;7.086;2022-08-21T06:21:07;8.85;;;4.07;;
68800;SDS011;55784;50.734;7.086;2022-08-21T06:23:34;9.93;;;4.60;;
68800;SDS011;55784;50.734;7.086;2022-08-21T06:26:01;11.82;;;4.50;;
68800;SDS011;55784;50.734;7.086;2022-08-21T06:28:27;11.15;;;4.05;;
68800;SDS011;55784;50.734;7.086;2022-08-21T06:30:52;8.37;;;4.50;;
68800;SDS011;55784;50.734;7.086;2022-08-21T06:33:18;9.87;;;4.20;;
68800;SDS011;55784;50.734;7.086;2022-08-21T06:35:43;9.80;;;4.30;;
68800;SDS011;55784;50.734;7.086;2022-08-21T06:38:09;9.15;;;4.53;;
68800;SDS011;55784;50.734;7.086;2022-08-21T06:40:34;11.47;;;4.60;;
68800;SDS011;55784;50.734;7.086;2022-08-21T06:43:08;10.40;;;4.93;;
68800;SDS011;55784;50.734;7.086;2022-08-21T06:45:34;9.77;;;4.97;;
68800;SDS011;55784;50.734;7.086;2022-08-21T06:48:00;11.40;;;4.90;;
68800;SDS011;55784;50.734;7.086;2022-08-21T06:50:26;9.83;;;4.80;;
68800;SDS011;55784;50.734;7.086;2022-08-21T06:52:58;11.18;;;5.45;;
68800;SDS011;55784;50.734;7.086;2022-08-21T06:55:27;11.48;;;5.60;;
68800;SDS011;55784;50.734;7.086;2022-08-21T06:57:53;12.23;;;5.23;;
68800;SDS011;55784;50.734;7.086;2022-08-21T07:00:18;10.20;;;5.20;;
68800;SDS011;55784;50.734;7.086;2022-08-21T07:02:44;13.53;;;4.70;;
68800;SDS011;55784;50.734;7.086;2022-08-21T07:05:09;11.37;;;4.83;;
68800;SDS011;55784;50.734;7.086;2022-08-21T07:07:35;10.60;;;4.47;;
68800;SDS011;55784;50.734;7.086;2022-08-21T07:10:00;13.90;;;4.70;;
68800;SDS011;55784;50.734;7.086;2022-08-21T07:12:25;9.23;;;4.17;;
68800;SDS011;55784;50.734;7.086;2022-08-21T07:14:51;8.73;;;4.00;;
68800;SDS011;55784;50.734;7.086;2022-08-21T07:17:17;10.00;;;4.85;;
68800;SDS011;55784;50.734;7.086;2022-08-21T07:19:42;11.17;;;4.30;;
68800;SDS011;55784;50.734;7.086;2022-08-21T07:22:07;10.67;;;4.33;;
68800;SDS011;55784;50.734;7.086;2022-08-21T07:24:33;9.13;;;4.10;;
68800;SDS011;55784;50.734;7.086;2022-08-21T07:26:58;9.77;;;4.20;;
68800;SDS011;55784;50.734;7.086;2022-08-21T07:29:23;11.60;;;4.20;;
68800;SDS011;55784;50.734;7.086;2022-08-21T07:31:48;8.87;;;3.87;;
68800;SDS011;55784;50.734;7.086;2022-08-21T07:34:14;9.97;;;3.80;;
68800;SDS011;55784;50.734;7.086;2022-08-21T07:36:39;10.63;;;4.00;;
68800;SDS011;55784;50.734;7.086;2022-08-21T07:39:05;12.47;;;3.80;;
68800;SDS011;55784;50.734;7.086;2022-08-21T07:41:30;8.43;;;3.38;;
68800;SDS011;55784;50.734;7.086;2022-08-21T07:43:57;8.07;;;2.90;;
68800;SDS011;55784;50.734;7.086;2022-08-21T07:46:23;11.13;;;3.10;;
68800;SDS011;55784;50.734;7.086;2022-08-21T07:48:49;9.90;;;3.08;;
68800;SDS011;55784;50.734;7.086;2022-08-21T07:51:15;9.47;;;2.83;;
68800;SDS011;55784;50.734;7.086;2022-08-21T07:53:41;8.73;;;2.70;;
68800;SDS011;55784;50.734;7.086;2022-08-21T07:56:12;8.20;;;2.83;;
68800;SDS011;55784;50.734;7.086;2022-08-21T07:58:37;9.30;;;2.70;;
68800;SDS011;55784;50.734;7.086;2022-08-21T08:01:02;7.80;;;2.50;;
68800;SDS011;55784;50.734;7.086;2022-08-21T08:03:29;7.00;;;2.50;;
68800;SDS011;55784;50.734;7.086;2022-08-21T08:05:55;10.63;;;2.60;;
68800;SDS011;55784;50.734;7.086;2022-08-21T08:08:21;8.55;;;2.63;;
68800;SDS011;55784;50.734;7.086;2022-08-21T08:10:46;8.23;;;2.50;;
68800;SDS011;55784;50.734;7.086;2022-08-21T08:13:12;7.20;;;2.40;;
68800;SDS011;55784;50.734;7.086;2022-08-21T08:15:38;9.13;;;3.20;;
68800;SDS011;55784;50.734;7.086;2022-08-21T08:18:03;10.07;;;3.00;;
68800;SDS011;55784;50.734;7.086;2022-08-21T08:20:29;8.68;;;3.15;;
68800;SDS011;55784;50.734;7.086;2022-08-21T08:22:54;8.67;;;2.90;;
68800;SDS011;55784;50.734;7.086;2022-08-21T08:25:20;9.17;;;2.90;;
68800;SDS011;55784;50.734;7.086;2022-08-21T08:27:47;10.55;;;2.90;;
68800;SDS011;55784;50.734;7.086;2022-08-21T08:30:14;10.55;;;2.78;;
68800;SDS011;55784;50.734;7.086;2022-08-21T08:32:41;9.03;;;3.00;;
68800;SDS011;55784;50.734;7.086;2022-08-21T08:35:07;6.53;;;2.50;;
68800;SDS011;55784;50.734;7.086;2022-08-21T08:37:39;9.07;;;2.40;;
68800;SDS011;55784;50.734;7.086;2022-08-21T08:41:06;7.38;;;2.42;;
68800;SDS011;55784;50.734;7.086;2022-08-21T08:43:40;7.72;;;2.35;;
68800;SDS011;55784;50.734;7.086;2022-08-21T08:46:21;7.23;;;2.40;;
68800;SDS011;55784;50.734;7.086;2022-08-21T08:49:19;9.45;;;2.92;;
68800;SDS011;55784;50.734;7.086;2022-08-21T08:51:58;7.63;;;2.38;;
68800;SDS011;55784;50.734;7.086;2022-08-21T08:54:28;9.90;;;2.30;;
68800;SDS011;55784;50.734;7.086;2022-08-21T08:57:00;7.07;;;2.38;;
68800;SDS011;55784;50.734;7.086;2022-08-21T08:59:27;6.93;;;2.30;;
68800;SDS011;55784;50.734;7.086;2022-08-21T09:02:03;7.35;;;2.30;;
68800;SDS011;55784;50.734;7.086;2022-08-21T09:04:29;6.25;;;1.95;;
68800;SDS011;55784;50.734;7.086;2022-08-21T09:09:41;7.82;;;2.22;;
68800;SDS011;55784;50.734;7.086;2022-08-21T09:12:25;7.68;;;2.10;;
68800;SDS011;55784;50.734;7.086;2022-08-21T09:17:59;7.28;;;2.10;;
68800;SDS011;55784;50.734;7.086;2022-08-21T09:20:54;6.23;;;2.10;;
68800;SDS011;55784;50.734;7.086;2022-08-21T09:26:11;6.63;;;2.10;;
68800;SDS011;55784;50.734;7.086;2022-08-21T09:28:41;8.68;;;2.67;;
68800;SDS011;55784;50.734;7.086;2022-08-21T09:31:08;7.43;;;1.97;;
68800;SDS011;55784;50.734;7.086;2022-08-21T09:33:40;9.48;;;2.20;;
68800;SDS011;55784;50.734;7.086;2022-08-21T09:36:06;7.10;;;2.00;;
68800;SDS011;55784;50.734;7.086;2022-08-21T09:38:32;7.03;;;2.20;;
68800;SDS011;55784;50.734;7.086;2022-08-21T09:41:09;7.53;;;2.30;;
68800;SDS011;55784;50.734;7.086;2022-08-21T09:43:35;7.93;;;2.42;;
68800;SDS011;55784;50.734;7.086;2022-08-21T09:46:04;6.13;;;2.03;;
68800;SDS011;55784;50.734;7.086;2022-08-21T09:48:29;8.38;;;2.05;;
68800;SDS011;55784;50.734;7.086;2022-08-21T09:51:06;8.97;;;2.20;;
68800;SDS011;55784;50.734;7.086;2022-08-21T09:53:37;9.00;;;2.28;;
68800;SDS011;55784;50.734;7.086;2022-08-21T09:56:16;7.28;;;1.83;;
68800;SDS011;55784;50.734;7.086;2022-08-21T09:59:11;7.28;;;1.90;;
68800;SDS011;55784;50.734;7.086;2022-08-21T10:01:46;9.18;;;2.20;;
68800;SDS011;55784;50.734;7.086;2022-08-21T10:04:15;7.90;;;2.00;;
68800;SDS011;55784;50.734;7.086;2022-08-21T10:06:45;7.65;;;1.80;;
68800;SDS011;55784;50.734;7.086;2022-08-21T10:11:41;9.07;;;2.03;;
68800;SDS011;55784;50.734;7.086;2022-08-21T10:17:07;6.75;;;1.70;;
68800;SDS011;55784;50.734;7.086;2022-08-21T10:27:42;7.25;;;1.90;;
68800;SDS011;55784;50.734;7.086;2022-08-21T10:30:26;5.32;;;1.70;;
68800;SDS011;55784;50.734;7.086;2022-08-21T10:35:40;6.63;;;1.73;;
68800;SDS011;55784;50.734;7.086;2022-08-21T10:41:14;6.07;;;1.60;;
68800;SDS011;55784;50.734;7.086;2022-08-21T10:47:01;6.18;;;1.50;;
68800;SDS011;55784;50.734;7.086;2022-08-21T10:49:41;6.27;;;1.97;;
68800;SDS011;55784;50.734;7.086;2022-08-21T10:55:02;6.28;;;1.80;;
68800;SDS011;55784;50.734;7.086;2022-08-21T11:00:06;7.70;;;1.90;;
68800;SDS011;55784;50.734;7.086;2022-08-21T11:02:40;8.07;;;3.00;;
68800;SDS011;55784;50.734;7.086;2022-08-21T11:05:21;6.82;;;1.88;;
68800;SDS011;55784;50.734;7.086;2022-08-21T11:10:48;6.97;;;2.13;;
68800;SDS011;55784;50.734;7.086;2022-08-21T11:13:24;6.55;;;1.98;;
68800;SDS011;55784;50.734;7.086;2022-08-21T11:15:58;6.57;;;1.60;;
68800;SDS011;55784;50.734;7.086;2022-08-21T11:21:12;6.85;;;2.03;;
68800;SDS011;55784;50.734;7.086;2022-08-21T11:23:52;6.32;;;1.88;;
68800;SDS011;55784;50.734;7.086;2022-08-21T11:34:50;6.07;;;1.60;;
68800;SDS011;55784;50.734;7.086;2022-08-21T11:45:55;6.47;;;1.70;;
68800;SDS011;55784;50.734;7.086;2022-08-21T11:48:37;7.05;;;1.70;;
68800;SDS011;55784;50.734;7.086;2022-08-21T11:51:11;5.45;;;1.52;;
68800;SDS011;55784;50.734;7.086;2022-08-21T11:53:50;5.90;;;1.55;;
68800;SDS011;55784;50.734;7.086;2022-08-21T11:56:23;6.83;;;1.57;;
68800;SDS011;55784;50.734;7.086;2022-08-21T11:58:53;6.10;;;1.50;;
68800;SDS011;55784;50.734;7.086;2022-08-21T12:01:29;6.55;;;1.67;;
68800;SDS011;55784;50.734;7.086;2022-08-21T12:03:59;6.70;;;1.80;;
68800;SDS011;55784;50.734;7.086;2022-08-21T12:06:32;5.50;;;1.67;;
68800;SDS011;55784;50.734;7.086;2022-08-21T12:09:04;7.13;;;1.63;;
68800;SDS011;55784;50.734;7.086;2022-08-21T12:11:31;6.25;;;1.88;;
68800;SDS011;55784;50.734;7.086;2022-08-21T12:19:08;5.03;;;1.55;;
68800;SDS011;55784;50.734;7.086;2022-08-21T12:21:58;5.57;;;1.43;;
68800;SDS011;55784;50.734;7.086;2022-08-21T12:24:37;6.80;;;1.70;;
68800;SDS011;55784;50.734;7.086;2022-08-21T12:27:17;6.43;;;2.10;;
68800;SDS011;55784;50.734;7.086;2022-08-21T12:29:46;7.05;;;1.63;;
68800;SDS011;55784;50.734;7.086;2022-08-21T12:34:46;5.80;;;1.70;;
68800;SDS011;55784;50.734;7.086;2022-08-21T12:37:19;6.40;;;2.23;;
68800;SDS011;55784;50.734;7.086;2022-08-21T12:39:51;5.85;;;1.50;;
68800;SDS011;55784;50.734;7.086;2022-08-21T12:42:22;6.57;;;1.55;;
68800;SDS011;55784;50.734;7.086;2022-08-21T12:44:59;6.13;;;1.67;;
68800;SDS011;55784;50.734;7.086;2022-08-21T12:47:34;4.50;;;1.50;;
68800;SDS011;55784;50.734;7.086;2022-08-21T12:50:11;7.43;;;1.60;;
68800;SDS011;55784;50.734;7.086;2022-08-21T12:53:00;9.18;;;3.53;;
68800;SDS011;55784;50.734;7.086;2022-08-21T12:55:49;12.30;;;4.10;;
68800;SDS011;55784;50.734;7.086;2022-08-21T12:58:18;10.25;;;4.10;;
68800;SDS011;55784;50.734;7.086;2022-08-21T13:00:52;8.03;;;2.40;;
68800;SDS011;55784;50.734;7.086;2022-08-21T13:03:21;8.05;;;2.80;;
68800;SDS011;55784;50.734;7.086;2022-08-21T13:05:48;6.82;;;2.15;;
68800;SDS011;55784;50.734;7.086;2022-08-21T13:08:16;5.03;;;1.40;;
68800;SDS011;55784;50.734;7.086;2022-08-21T13:10:44;7.15;;;1.75;;
68800;SDS011;55784;50.734;7.086;2022-08-21T13:13:19;4.00;;;1.23;;
68800;SDS011;55784;50.734;7.086;2022-08-21T13:15:46;5.40;;;1.40;;
68800;SDS011;55784;50.734;7.086;2022-08-21T13:18:23;4.55;;;1.50;;
68800;SDS011;55784;50.734;7.086;2022-08-21T13:20:50;5.70;;;1.50;;
68800;SDS011;55784;50.734;7.086;2022-08-21T13:23:27;4.87;;;1.30;;
68800;SDS011;55784;50.734;7.086;2022-08-21T13:25:54;6.18;;;1.70;;
68800;SDS011;55784;50.734;7.086;2022-08-21T13:28:21;4.85;;;1.45;;
68800;SDS011;55784;50.734;7.086;2022-08-21T13:30:48;5.05;;;1.40;;
68800;SDS011;55784;50.734;7.086;2022-08-21T13:33:15;7.13;;;1.63;;
68800;SDS011;55784;50.734;7.086;2022-08-21T13:38:22;5.45;;;1.50;;
68800;SDS011;55784;50.734;7.086;2022-08-21T13:43:16;5.60;;;1.60;;
68800;SDS011;55784;50.734;7.086;2022-08-21T13:45:48;6.15;;;1.52;;
68800;SDS011;55784;50.734;7.086;2022-08-21T13:48:14;7.85;;;1.65;;
68800;SDS011;55784;50.734;7.086;2022-08-21T13:50:40;5.23;;;1.50;;
68800;SDS011;55784;50.734;7.086;2022-08-21T13:53:18;5.53;;;1.50;;
68800;SDS011;55784;50.734;7.086;2022-08-21T13:56:04;10.18;;;3.97;;
68800;SDS011;55784;50.734;7.086;2022-08-21T13:58:52;5.60;;;1.38;;
68800;SDS011;55784;50.734;7.086;2022-08-21T14:01:31;5.77;;;1.53;;
68800;SDS011;55784;50.734;7.086;2022-08-21T14:03:59;5.10;;;1.50;;
68800;SDS011;55784;50.734;7.086;2022-08-21T14:06:28;5.03;;;1.40;;
68800;SDS011;55784;50.734;7.086;2022-08-21T14:09:07;5.20;;;1.50;;
68800;SDS011;55784;50.734;7.086;2022-08-21T14:11:35;6.43;;;1.60;;
68800;SDS011;55784;50.734;7.086;2022-08-21T14:14:04;5.73;;;1.60;;
68800;SDS011;55784;50.734;7.086;2022-08-21T14:16:44;4.97;;;1.40;;
68800;SDS011;55784;50.734;7.086;2022-08-21T14:19:21;5.13;;;1.40;;
68800;SDS011;55784;50.734;7.086;2022-08-21T14:21:49;4.93;;;1.40;;
68800;SDS011;55784;50.734;7.086;2022-08-21T14:24:28;6.78;;;1.40;;
68800;SDS011;55784;50.734;7.086;2022-08-21T14:26:56;5.67;;;1.50;;
68800;SDS011;55784;50.734;7.086;2022-08-21T14:29:27;7.68;;;1.48;;
68800;SDS011;55784;50.734;7.086;2022-08-21T14:31:58;5.57;;;1.58;;
68800;SDS011;55784;50.734;7.086;2022-08-21T14:34:26;6.05;;;1.50;;
68800;SDS011;55784;50.734;7.086;2022-08-21T14:36:54;5.63;;;1.42;;
68800;SDS011;55784;50.734;7.086;2022-08-21T14:39:20;6.70;;;1.60;;
68800;SDS011;55784;50.734;7.086;2022-08-21T14:41:47;5.07;;;1.40;;
68800;SDS011;55784;50.734;7.086;2022-08-21T14:44:14;5.53;;;1.50;;
68800;SDS011;55784;50.734;7.086;2022-08-21T14:46:41;7.43;;;1.48;;
68800;SDS011;55784;50.734;7.086;2022-08-21T14:49:06;7.50;;;1.70;;
68800;SDS011;55784;50.734;7.086;2022-08-21T14:51:32;7.05;;;1.60;;
68800;SDS011;55784;50.734;7.086;2022-08-21T14:53:58;5.47;;;1.40;;
68800;SDS011;55784;50.734;7.086;2022-08-21T14:56:23;5.82;;;1.60;;
68800;SDS011;55784;50.734;7.086;2022-08-21T14:58:52;5.90;;;1.53;;
68800;SDS011;55784;50.734;7.086;2022-08-21T15:01:21;7.68;;;2.60;;
68800;SDS011;55784;50.734;7.086;2022-08-21T15:03:47;7.13;;;1.95;;
68800;SDS011;55784;50.734;7.086;2022-08-21T15:06:13;6.80;;;1.95;;
68800;SDS011;55784;50.734;7.086;2022-08-21T15:08:40;6.65;;;1.75;;
68800;SDS011;55784;50.734;7.086;2022-08-21T15:11:06;6.10;;;1.73;;
68800;SDS011;55784;50.734;7.086;2022-08-21T15:13:33;6.85;;;1.90;;
68800;SDS011;55784;50.734;7.086;2022-08-21T15:15:59;6.97;;;1.50;;
68800;SDS011;55784;50.734;7.086;2022-08-21T15:18:25;6.53;;;1.67;;
68800;SDS011;55784;50.734;7.086;2022-08-21T15:20:52;7.72;;;1.80;;
68800;SDS011;55784;50.734;7.086;2022-08-21T15:23:21;6.85;;;1.83;;
68800;SDS011;55784;50.734;7.086;2022-08-21T15:25:47;6.90;;;1.75;;
68800;SDS011;55784;50.734;7.086;2022-08-21T15:28:13;6.45;;;2.25;;
68800;SDS011;55784;50.734;7.086;2022-08-21T15:30:42;8.10;;;2.07;;
68800;SDS011;55784;50.734;7.086;2022-08-21T15:33:08;9.50;;;2.13;;
68800;SDS011;55784;50.734;7.086;2022-08-21T15:35:34;7.17;;;2.10;;
68800;SDS011;55784;50.734;7.086;2022-08-21T15:38:00;6.00;;;1.70;;
68800;SDS011;55784;50.734;7.086;2022-08-21T15:40:25;7.77;;;1.67;;
68800;SDS011;55784;50.734;7.086;2022-08-21T15:42:52;6.88;;;2.75;;
68800;SDS011;55784;50.734;7.086;2022-08-21T15:45:28;7.13;;;2.13;;
68800;SDS011;55784;50.734;7.086;2022-08-21T15:47:54;7.00;;;1.60;;
68800;SDS011;55784;50.734;7.086;2022-08-21T15:50:24;6.65;;;1.63;;
68800;SDS011;55784;50.734;7.086;2022-08-21T15:52:50;8.17;;;2.40;;
68800;SDS011;55784;50.734;7.086;2022-08-21T15:55:19;6.78;;;1.60;;
68800;SDS011;55784;50.734;7.086;2022-08-21T15:57:45;6.07;;;1.60;;
68800;SDS011;55784;50.734;7.086;2022-08-21T16:02:42;7.88;;;1.52;;
68800;SDS011;55784;50.734;7.086;2022-08-21T16:05:09;5.50;;;1.50;;
68800;SDS011;55784;50.734;7.086;2022-08-21T16:07:41;5.90;;;1.50;;
68800;SDS011;55784;50.734;7.086;2022-08-21T16:10:12;6.20;;;1.63;;
68800;SDS011;55784;50.734;7.086;2022-08-21T16:13:04;5.85;;;1.33;;